sensor_id;sensor_type;location;lat;lon;timestamp;pressure;altitude;pressure_sealevel;temperature;humidity
59168;BME280;44948;55.046;73.266;2023-02-26T00:00:59;101552.06;;;-17.14;68.91
59168;BME280;44948;55.046;73.266;2023-02-26T00:04:03;101550.06;;;-17.19;69.10
59168;BME280;44948;55.046;73.266;2023-02-26T00:07:06;101544.34;;;-17.17;68.95
59168;BME280;44948;55.046;73.266;2023-02-26T00:10:11;101544.28;;;-17.18;68.73
59168;BME280;44948;55.046;73.266;2023-02-26T00:13:14;101543.75;;;-17.13;68.90
59168;BME280;44948;55.046;73.266;2023-02-26T00:16:29;101557.59;;;-17.19;68.78
59168;BME280;44948;55.046;73.266;2023-02-26T00:19:32;101549.97;;;-17.21;69.07
59168;BME280;44948;55.046;73.266;2023-02-26T00:22:35;101557.59;;;-17.19;68.89
59168;BME280;44948;55.046;73.266;2023-02-26T00:25:37;101566.16;;;-17.16;68.92
59168;BME280;44948;55.046;73.266;2023-02-26T00:28:40;101574.28;;;-17.20;68.94
59168;BME280;44948;55.046;73.266;2023-02-26T00:31:53;101558.00;;;-17.39;69.21
59168;BME280;44948;55.046;73.266;2023-02-26T00:34:56;101590.59;;;-17.26;69.12
59168;BME280;44948;55.046;73.266;2023-02-26T00:38:13;101592.03;;;-17.30;69.30
59168;BME280;44948;55.046;73.266;2023-02-26T00:41:18;101586.38;;;-17.27;69.27
59168;BME280;44948;55.046;73.266;2023-02-26T00:44:21;101586.53;;;-17.24;68.97
59168;BME280;44948;55.046;73.266;2023-02-26T00:47:25;101590.97;;;-17.33;69.20
59168;BME280;44948;55.046;73.266;2023-02-26T00:50:37;101583.09;;;-17.39;69.25
59168;BME280;44948;55.046;73.266;2023-02-26T00:53:48;101574.38;;;-17.31;69.44
59168;BME280;44948;55.046;73.266;2023-02-26T00:56:56;101578.63;;;-17.30;69.31
59168;BME280;44948;55.046;73.266;2023-02-26T00:59:58;101587.31;;;-17.25;69.24
59168;BME280;44948;55.046;73.266;2023-02-26T01:03:11;101595.63;;;-17.26;69.10
59168;BME280;44948;55.046;73.266;2023-02-26T01:06:19;101593.56;;;-17.32;69.21
59168;BME280;44948;55.046;73.266;2023-02-26T01:09:30;101587.69;;;-17.32;69.46
59168;BME280;44948;55.046;73.266;2023-02-26T01:12:36;101584.50;;;-17.30;69.34
59168;BME280;44948;55.046;73.266;2023-02-26T01:15:46;101591.38;;;-17.27;69.52
59168;BME280;44948;55.046;73.266;2023-02-26T01:19:00;101574.88;;;-17.24;69.19
59168;BME280;44948;55.046;73.266;2023-02-26T01:25:50;101586.91;;;-17.31;69.30
59168;BME280;44948;55.046;73.266;2023-02-26T01:28:56;101594.75;;;-17.27;69.71
59168;BME280;44948;55.046;73.266;2023-02-26T01:32:24;101600.81;;;-17.23;69.53
59168;BME280;44948;55.046;73.266;2023-02-26T01:35:42;101603.16;;;-17.26;69.28
59168;BME280;44948;55.046;73.266;2023-02-26T01:39:07;101598.13;;;-17.26;69.69
59168;BME280;44948;55.046;73.266;2023-02-26T01:42:20;101609.13;;;-17.24;69.41
59168;BME280;44948;55.046;73.266;2023-02-26T01:45:30;101607.56;;;-17.22;69.26
59168;BME280;44948;55.046;73.266;2023-02-26T01:48:50;101609.09;;;-17.11;69.42
59168;BME280;44948;55.046;73.266;2023-02-26T01:55:23;101604.19;;;-17.09;69.56
59168;BME280;44948;55.046;73.266;2023-02-26T01:58:31;101606.97;;;-17.05;69.37
59168;BME280;44948;55.046;73.266;2023-02-26T02:01:38;101601.00;;;-17.07;69.51
59168;BME280;44948;55.046;73.266;2023-02-26T02:04:41;101610.16;;;-17.07;69.54
59168;BME280;44948;55.046;73.266;2023-02-26T02:07:46;101596.66;;;-17.09;69.56
59168;BME280;44948;55.046;73.266;2023-02-26T02:10:50;101600.22;;;-17.06;69.72
59168;BME280;44948;55.046;73.266;2023-02-26T02:17:21;101603.94;;;-16.99;69.43
59168;BME280;44948;55.046;73.266;2023-02-26T02:34:11;101599.25;;;-16.80;69.47
59168;BME280;44948;55.046;73.266;2023-02-26T02:37:24;101612.97;;;-16.75;69.32
59168;BME280;44948;55.046;73.266;2023-02-26T02:40:32;101600.03;;;-16.81;69.42
59168;BME280;44948;55.046;73.266;2023-02-26T02:43:40;101618.19;;;-16.72;69.68
59168;BME280;44948;55.046;73.266;2023-02-26T02:46:46;101616.88;;;-16.65;69.96
59168;BME280;44948;55.046;73.266;2023-02-26T02:50:06;101616.81;;;-16.52;69.75
59168;BME280;44948;55.046;73.266;2023-02-26T02:53:21;101628.00;;;-16.47;69.70
59168;BME280;44948;55.046;73.266;2023-02-26T02:56:33;101629.41;;;-16.37;69.44
59168;BME280;44948;55.046;73.266;2023-02-26T02:59:49;101621.53;;;-16.29;69.44
59168;BME280;44948;55.046;73.266;2023-02-26T03:06:20;101638.28;;;-16.14;69.62
59168;BME280;44948;55.046;73.266;2023-02-26T03:09:34;101636.84;;;-16.11;69.56
59168;BME280;44948;55.046;73.266;2023-02-26T03:12:38;101597.47;;;-16.25;69.55
59168;BME280;44948;55.046;73.266;2023-02-26T03:16:12;101642.13;;;-16.06;69.65
59168;BME280;44948;55.046;73.266;2023-02-26T03:26:26;101649.00;;;-15.89;69.65
59168;BME280;44948;55.046;73.266;2023-02-26T03:33:13;101656.53;;;-15.60;69.57
59168;BME280;44948;55.046;73.266;2023-02-26T03:36:30;101657.38;;;-15.44;69.38
59168;BME280;44948;55.046;73.266;2023-02-26T03:39:53;101654.03;;;-15.29;69.09
59168;BME280;44948;55.046;73.266;2023-02-26T03:46:10;101657.47;;;-15.12;69.26
59168;BME280;44948;55.046;73.266;2023-02-26T03:49:23;101663.97;;;-15.01;69.14
59168;BME280;44948;55.046;73.266;2023-02-26T03:52:29;101652.69;;;-14.92;69.43
59168;BME280;44948;55.046;73.266;2023-02-26T03:59:48;101642.47;;;-14.63;68.96
59168;BME280;44948;55.046;73.266;2023-02-26T04:03:57;101646.28;;;-14.55;69.04
59168;BME280;44948;55.046;73.266;2023-02-26T04:07:08;101638.88;;;-14.52;68.85
59168;BME280;44948;55.046;73.266;2023-02-26T04:10:34;101651.00;;;-14.28;68.96
59168;BME280;44948;55.046;73.266;2023-02-26T04:13:47;101636.84;;;-14.26;68.71
59168;BME280;44948;55.046;73.266;2023-02-26T04:16:51;101660.56;;;-14.05;68.71
59168;BME280;44948;55.046;73.266;2023-02-26T04:19:54;101641.34;;;-14.03;68.61
59168;BME280;44948;55.046;73.266;2023-02-26T04:22:59;101663.22;;;-13.86;68.89
59168;BME280;44948;55.046;73.266;2023-02-26T04:26:02;101649.31;;;-13.78;68.80
59168;BME280;44948;55.046;73.266;2023-02-26T04:29:14;101657.03;;;-13.58;68.51
59168;BME280;44948;55.046;73.266;2023-02-26T04:32:17;101662.50;;;-13.49;68.57
59168;BME280;44948;55.046;73.266;2023-02-26T04:35:19;101657.72;;;-13.43;68.61
59168;BME280;44948;55.046;73.266;2023-02-26T04:38:27;101637.94;;;-13.35;68.34
59168;BME280;44948;55.046;73.266;2023-02-26T04:41:30;101662.59;;;-13.12;68.35
59168;BME280;44948;55.046;73.266;2023-02-26T04:44:33;101673.34;;;-12.98;68.53
59168;BME280;44948;55.046;73.266;2023-02-26T04:47:36;101665.59;;;-12.83;68.18
59168;BME280;44948;55.046;73.266;2023-02-26T04:50:40;101660.13;;;-12.56;68.30
59168;BME280;44948;55.046;73.266;2023-02-26T04:53:46;101660.44;;;-12.48;68.09
59168;BME280;44948;55.046;73.266;2023-02-26T04:56:59;101670.63;;;-12.46;67.79
59168;BME280;44948;55.046;73.266;2023-02-26T05:00:02;101658.53;;;-12.34;67.81
59168;BME280;44948;55.046;73.266;2023-02-26T05:03:09;101661.97;;;-12.32;68.15
59168;BME280;44948;55.046;73.266;2023-02-26T05:06:15;101660.53;;;-12.08;67.98
59168;BME280;44948;55.046;73.266;2023-02-26T05:09:28;101663.31;;;-12.02;68.24
59168;BME280;44948;55.046;73.266;2023-02-26T05:12:31;101660.38;;;-11.91;67.88
59168;BME280;44948;55.046;73.266;2023-02-26T05:15:35;101671.41;;;-11.70;67.84
59168;BME280;44948;55.046;73.266;2023-02-26T05:18:48;101673.66;;;-11.57;68.04
59168;BME280;44948;55.046;73.266;2023-02-26T05:21:50;101674.81;;;-11.49;68.13
59168;BME280;44948;55.046;73.266;2023-02-26T05:24:52;101670.78;;;-11.65;68.16
59168;BME280;44948;55.046;73.266;2023-02-26T05:27:56;101653.13;;;-11.63;68.63
59168;BME280;44948;55.046;73.266;2023-02-26T05:31:08;101641.38;;;-11.61;68.60
59168;BME280;44948;55.046;73.266;2023-02-26T05:34:10;101656.47;;;-11.22;68.34
59168;BME280;44948;55.046;73.266;2023-02-26T05:37:12;101666.44;;;-11.25;67.94
59168;BME280;44948;55.046;73.266;2023-02-26T05:40:19;101662.22;;;-10.82;67.52
59168;BME280;44948;55.046;73.266;2023-02-26T05:43:22;101666.03;;;-10.71;67.50
59168;BME280;44948;55.046;73.266;2023-02-26T05:46:25;101661.19;;;-10.64;67.31
59168;BME280;44948;55.046;73.266;2023-02-26T05:49:27;101663.88;;;-10.14;67.02
59168;BME280;44948;55.046;73.266;2023-02-26T05:52:30;101662.69;;;-9.99;66.34
59168;BME280;44948;55.046;73.266;2023-02-26T05:55:32;101658.06;;;-9.87;66.48
59168;BME280;44948;55.046;73.266;2023-02-26T05:58:34;101659.16;;;-9.79;65.95
59168;BME280;44948;55.046;73.266;2023-02-26T06:01:37;101646.19;;;-9.88;66.01
59168;BME280;44948;55.046;73.266;2023-02-26T06:04:39;101649.16;;;-9.74;66.08
59168;BME280;44948;55.046;73.266;2023-02-26T06:07:41;101651.50;;;-9.81;66.21
59168;BME280;44948;55.046;73.266;2023-02-26T06:10:50;101662.94;;;-9.68;66.89
59168;BME280;44948;55.046;73.266;2023-02-26T06:13:53;101671.44;;;-9.40;66.46
59168;BME280;44948;55.046;73.266;2023-02-26T06:16:55;101656.38;;;-9.36;66.49
59168;BME280;44948;55.046;73.266;2023-02-26T06:20:05;101662.31;;;-9.07;66.60
59168;BME280;44948;55.046;73.266;2023-02-26T06:23:08;101655.09;;;-8.66;66.28
59168;BME280;44948;55.046;73.266;2023-02-26T06:26:20;101652.19;;;-8.50;65.47
59168;BME280;44948;55.046;73.266;2023-02-26T06:29:27;101642.94;;;-8.46;65.88
59168;BME280;44948;55.046;73.266;2023-02-26T06:32:35;101656.22;;;-8.27;65.60
59168;BME280;44948;55.046;73.266;2023-02-26T06:35:48;101646.78;;;-8.31;65.37
59168;BME280;44948;55.046;73.266;2023-02-26T06:38:51;101652.31;;;-8.15;65.68
59168;BME280;44948;55.046;73.266;2023-02-26T06:41:54;101646.06;;;-7.95;65.33
59168;BME280;44948;55.046;73.266;2023-02-26T06:45:03;101645.31;;;-8.22;64.97
59168;BME280;44948;55.046;73.266;2023-02-26T06:48:11;101638.56;;;-8.52;65.78
59168;BME280;44948;55.046;73.266;2023-02-26T06:51:14;101644.91;;;-8.38;66.63
59168;BME280;44948;55.046;73.266;2023-02-26T06:54:16;101649.06;;;-8.10;66.36
59168;BME280;44948;55.046;73.266;2023-02-26T06:57:27;101643.56;;;-7.93;66.19
59168;BME280;44948;55.046;73.266;2023-02-26T07:00:29;101657.22;;;-7.90;66.19
59168;BME280;44948;55.046;73.266;2023-02-26T07:03:35;101641.22;;;-7.86;66.47
59168;BME280;44948;55.046;73.266;2023-02-26T07:06:37;101645.84;;;-7.71;66.20
59168;BME280;44948;55.046;73.266;2023-02-26T07:09:39;101648.25;;;-7.76;66.82
59168;BME280;44948;55.046;73.266;2023-02-26T07:12:45;101648.97;;;-7.48;66.66
59168;BME280;44948;55.046;73.266;2023-02-26T07:15:47;101646.34;;;-7.51;66.73
59168;BME280;44948;55.046;73.266;2023-02-26T07:18:50;101630.59;;;-7.70;67.59
59168;BME280;44948;55.046;73.266;2023-02-26T07:21:55;101649.94;;;-7.43;67.76
59168;BME280;44948;55.046;73.266;2023-02-26T07:24:57;101651.50;;;-7.48;68.14
59168;BME280;44948;55.046;73.266;2023-02-26T07:28:06;101641.81;;;-7.27;68.00
59168;BME280;44948;55.046;73.266;2023-02-26T07:31:19;101638.84;;;-7.45;67.71
59168;BME280;44948;55.046;73.266;2023-02-26T07:34:31;101640.47;;;-7.82;68.57
59168;BME280;44948;55.046;73.266;2023-02-26T07:37:34;101632.31;;;-7.69;68.88
59168;BME280;44948;55.046;73.266;2023-02-26T07:40:41;101651.53;;;-7.47;68.85
59168;BME280;44948;55.046;73.266;2023-02-26T07:43:44;101649.09;;;-7.77;68.93
59168;BME280;44948;55.046;73.266;2023-02-26T07:46:48;101647.63;;;-8.00;70.31
59168;BME280;44948;55.046;73.266;2023-02-26T07:50:01;101650.19;;;-8.00;70.85
59168;BME280;44948;55.046;73.266;2023-02-26T07:53:04;101642.50;;;-7.69;70.06
59168;BME280;44948;55.046;73.266;2023-02-26T07:56:06;101636.53;;;-7.36;69.48
59168;BME280;44948;55.046;73.266;2023-02-26T07:59:09;101639.97;;;-7.34;68.93
59168;BME280;44948;55.046;73.266;2023-02-26T08:02:12;101626.59;;;-7.24;69.08
59168;BME280;44948;55.046;73.266;2023-02-26T08:05:17;101618.41;;;-7.11;68.92
59168;BME280;44948;55.046;73.266;2023-02-26T08:08:20;101624.16;;;-6.80;68.46
59168;BME280;44948;55.046;73.266;2023-02-26T08:11:22;101620.03;;;-6.73;68.16
59168;BME280;44948;55.046;73.266;2023-02-26T08:14:24;101631.47;;;-6.97;67.69
59168;BME280;44948;55.046;73.266;2023-02-26T08:17:27;101627.47;;;-6.84;67.79
59168;BME280;44948;55.046;73.266;2023-02-26T08:20:30;101613.06;;;-6.82;67.78
59168;BME280;44948;55.046;73.266;2023-02-26T08:23:32;101596.66;;;-6.95;67.57
59168;BME280;44948;55.046;73.266;2023-02-26T08:26:45;101603.81;;;-6.77;67.83
59168;BME280;44948;55.046;73.266;2023-02-26T08:29:47;101606.72;;;-7.02;67.45
59168;BME280;44948;55.046;73.266;2023-02-26T08:32:51;101618.41;;;-7.11;66.95
59168;BME280;44948;55.046;73.266;2023-02-26T08:35:53;101614.56;;;-6.93;66.66
59168;BME280;44948;55.046;73.266;2023-02-26T08:38:57;101618.63;;;-6.61;66.27
59168;BME280;44948;55.046;73.266;2023-02-26T08:42:00;101625.47;;;-6.58;65.06
59168;BME280;44948;55.046;73.266;2023-02-26T08:45:02;101633.59;;;-6.37;64.23
59168;BME280;44948;55.046;73.266;2023-02-26T08:48:05;101625.28;;;-6.25;64.15
59168;BME280;44948;55.046;73.266;2023-02-26T08:51:07;101635.03;;;-6.04;63.66
59168;BME280;44948;55.046;73.266;2023-02-26T08:54:09;101640.19;;;-6.03;62.91
59168;BME280;44948;55.046;73.266;2023-02-26T08:57:12;101634.41;;;-5.93;63.24
59168;BME280;44948;55.046;73.266;2023-02-26T09:00:14;101618.94;;;-6.02;62.58
59168;BME280;44948;55.046;73.266;2023-02-26T09:03:18;101634.59;;;-6.29;62.00
59168;BME280;44948;55.046;73.266;2023-02-26T09:06:20;101623.03;;;-6.54;61.21
59168;BME280;44948;55.046;73.266;2023-02-26T09:09:23;101641.19;;;-6.79;61.94
59168;BME280;44948;55.046;73.266;2023-02-26T09:12:25;101628.19;;;-6.91;61.87
59168;BME280;44948;55.046;73.266;2023-02-26T09:15:32;101638.97;;;-7.04;61.20
59168;BME280;44948;55.046;73.266;2023-02-26T09:18:35;101646.16;;;-7.23;61.48
59168;BME280;44948;55.046;73.266;2023-02-26T09:21:46;101629.19;;;-7.22;61.87
59168;BME280;44948;55.046;73.266;2023-02-26T09:24:53;101642.47;;;-6.99;61.32
59168;BME280;44948;55.046;73.266;2023-02-26T09:27:55;101645.84;;;-7.00;60.89
59168;BME280;44948;55.046;73.266;2023-02-26T09:30:58;101642.19;;;-7.12;60.98
59168;BME280;44948;55.046;73.266;2023-02-26T09:34:00;101654.09;;;-7.11;60.82
59168;BME280;44948;55.046;73.266;2023-02-26T09:37:04;101649.84;;;-7.12;60.58
59168;BME280;44948;55.046;73.266;2023-02-26T09:47:20;101638.25;;;-6.99;60.69
59168;BME280;44948;55.046;73.266;2023-02-26T09:53:48;101633.31;;;-6.90;60.24
59168;BME280;44948;55.046;73.266;2023-02-26T09:56:52;101644.19;;;-6.98;60.49
59168;BME280;44948;55.046;73.266;2023-02-26T09:59:59;101631.78;;;-7.21;60.01
59168;BME280;44948;55.046;73.266;2023-02-26T10:13:04;101644.06;;;-7.39;60.81
59168;BME280;44948;55.046;73.266;2023-02-26T10:16:17;101642.31;;;-7.42;61.16
59168;BME280;44948;55.046;73.266;2023-02-26T10:19:31;101663.88;;;-7.29;60.91
59168;BME280;44948;55.046;73.266;2023-02-26T10:33:19;101689.09;;;-7.73;60.97
59168;BME280;44948;55.046;73.266;2023-02-26T10:46:58;101692.97;;;-7.87;61.85
59168;BME280;44948;55.046;73.266;2023-02-26T10:50:09;101689.00;;;-7.76;61.78
59168;BME280;44948;55.046;73.266;2023-02-26T10:53:16;101685.50;;;-7.81;61.77
59168;BME280;44948;55.046;73.266;2023-02-26T10:56:28;101681.06;;;-7.88;61.73
59168;BME280;44948;55.046;73.266;2023-02-26T10:59:32;101688.44;;;-7.65;61.67
59168;BME280;44948;55.046;73.266;2023-02-26T11:05:45;101691.16;;;-7.91;61.95
59168;BME280;44948;55.046;73.266;2023-02-26T11:08:51;101690.31;;;-7.90;62.70
59168;BME280;44948;55.046;73.266;2023-02-26T11:12:05;101681.78;;;-7.92;64.16
59168;BME280;44948;55.046;73.266;2023-02-26T11:15:17;101678.41;;;-7.91;63.71
59168;BME280;44948;55.046;73.266;2023-02-26T11:18:35;101677.44;;;-7.96;62.79
59168;BME280;44948;55.046;73.266;2023-02-26T11:21:40;101665.28;;;-8.06;62.59
59168;BME280;44948;55.046;73.266;2023-02-26T11:24:48;101682.03;;;-8.14;62.59
59168;BME280;44948;55.046;73.266;2023-02-26T11:28:05;101671.56;;;-8.23;62.63
59168;BME280;44948;55.046;73.266;2023-02-26T11:31:10;101680.16;;;-8.21;62.80
59168;BME280;44948;55.046;73.266;2023-02-26T11:34:22;101683.75;;;-8.13;62.75
59168;BME280;44948;55.046;73.266;2023-02-26T11:37:35;101680.34;;;-8.14;62.72
59168;BME280;44948;55.046;73.266;2023-02-26T11:40:46;101685.13;;;-8.24;62.72
59168;BME280;44948;55.046;73.266;2023-02-26T11:43:58;101680.16;;;-8.21;63.16
59168;BME280;44948;55.046;73.266;2023-02-26T11:47:24;101682.50;;;-8.28;63.41
59168;BME280;44948;55.046;73.266;2023-02-26T11:50:28;101675.59;;;-8.32;63.58
59168;BME280;44948;55.046;73.266;2023-02-26T11:53:41;101679.97;;;-8.28;63.76
59168;BME280;44948;55.046;73.266;2023-02-26T11:56:51;101671.88;;;-8.43;64.13
59168;BME280;44948;55.046;73.266;2023-02-26T11:59:55;101683.16;;;-8.35;64.01
59168;BME280;44948;55.046;73.266;2023-02-26T12:03:03;101679.44;;;-8.46;63.97
59168;BME280;44948;55.046;73.266;2023-02-26T12:06:21;101683.06;;;-8.38;64.34
59168;BME280;44948;55.046;73.266;2023-02-26T12:09:25;101687.44;;;-8.62;64.29
59168;BME280;44948;55.046;73.266;2023-02-26T12:15:49;101691.81;;;-8.57;64.53
59168;BME280;44948;55.046;73.266;2023-02-26T12:19:39;101701.13;;;-8.57;64.36
59168;BME280;44948;55.046;73.266;2023-02-26T12:26:32;101690.09;;;-8.58;64.64
59168;BME280;44948;55.046;73.266;2023-02-26T12:30:02;101673.72;;;-8.67;64.83
59168;BME280;44948;55.046;73.266;2023-02-26T12:36:28;101696.06;;;-8.57;65.13
59168;BME280;44948;55.046;73.266;2023-02-26T12:43:27;101702.25;;;-8.49;65.73
59168;BME280;44948;55.046;73.266;2023-02-26T12:46:47;101709.06;;;-8.48;66.01
59168;BME280;44948;55.046;73.266;2023-02-26T12:57:07;101717.38;;;-8.53;66.59
59168;BME280;44948;55.046;73.266;2023-02-26T13:07:33;101735.03;;;-8.58;67.35
59168;BME280;44948;55.046;73.266;2023-02-26T13:15:06;101734.94;;;-8.61;67.46
59168;BME280;44948;55.046;73.266;2023-02-26T13:21:53;101748.84;;;-8.50;67.41
59168;BME280;44948;55.046;73.266;2023-02-26T13:25:04;101752.41;;;-8.45;67.85
59168;BME280;44948;55.046;73.266;2023-02-26T13:31:40;101753.47;;;-8.65;68.39
59168;BME280;44948;55.046;73.266;2023-02-26T13:34:59;101770.03;;;-8.51;68.87
59168;BME280;44948;55.046;73.266;2023-02-26T13:38:23;101763.88;;;-8.58;69.38
59168;BME280;44948;55.046;73.266;2023-02-26T13:42:21;101766.53;;;-8.54;69.51
59168;BME280;44948;55.046;73.266;2023-02-26T13:51:58;101790.47;;;-8.48;70.95
59168;BME280;44948;55.046;73.266;2023-02-26T13:55:35;101788.16;;;-8.40;70.72
59168;BME280;44948;55.046;73.266;2023-02-26T13:58:40;101795.03;;;-8.38;71.33
59168;BME280;44948;55.046;73.266;2023-02-26T14:18:48;101795.59;;;-8.19;72.51
59168;BME280;44948;55.046;73.266;2023-02-26T14:21:58;101801.63;;;-8.16;72.95
59168;BME280;44948;55.046;73.266;2023-02-26T14:25:26;101800.53;;;-8.24;73.23
59168;BME280;44948;55.046;73.266;2023-02-26T14:28:34;101787.84;;;-8.22;73.60
59168;BME280;44948;55.046;73.266;2023-02-26T14:32:11;101809.19;;;-8.19;73.61
59168;BME280;44948;55.046;73.266;2023-02-26T14:35:32;101801.38;;;-8.23;73.82
59168;BME280;44948;55.046;73.266;2023-02-26T14:38:37;101796.44;;;-8.19;74.12
59168;BME280;44948;55.046;73.266;2023-02-26T14:41:42;101792.31;;;-8.15;73.66
59168;BME280;44948;55.046;73.266;2023-02-26T14:44:53;101783.47;;;-8.27;73.82
59168;BME280;44948;55.046;73.266;2023-02-26T14:48:06;101793.94;;;-8.17;74.10
59168;BME280;44948;55.046;73.266;2023-02-26T15:01:55;101801.06;;;-8.34;74.43
59168;BME280;44948;55.046;73.266;2023-02-26T15:22:01;101803.38;;;-8.42;74.77
59168;BME280;44948;55.046;73.266;2023-02-26T15:25:15;101802.56;;;-8.41;74.89
59168;BME280;44948;55.046;73.266;2023-02-26T15:28:27;101808.72;;;-8.34;74.82
59168;BME280;44948;55.046;73.266;2023-02-26T15:31:41;101808.84;;;-8.30;74.86
59168;BME280;44948;55.046;73.266;2023-02-26T15:34:48;101807.13;;;-8.31;74.73
59168;BME280;44948;55.046;73.266;2023-02-26T15:38:03;101811.25;;;-8.34;74.90
59168;BME280;44948;55.046;73.266;2023-02-26T15:41:10;101807.22;;;-8.28;74.75
59168;BME280;44948;55.046;73.266;2023-02-26T15:44:28;101811.34;;;-8.31;75.13
59168;BME280;44948;55.046;73.266;2023-02-26T15:47:41;101799.47;;;-8.31;74.68
59168;BME280;44948;55.046;73.266;2023-02-26T15:50:46;101810.03;;;-8.18;74.38
59168;BME280;44948;55.046;73.266;2023-02-26T15:53:51;101827.00;;;-8.46;74.72
59168;BME280;44948;55.046;73.266;2023-02-26T15:56:56;101813.66;;;-8.39;75.21
59168;BME280;44948;55.046;73.266;2023-02-26T16:00:12;101817.88;;;-8.39;74.84
59168;BME280;44948;55.046;73.266;2023-02-26T16:03:17;101819.88;;;-8.29;74.71
59168;BME280;44948;55.046;73.266;2023-02-26T16:06:26;101817.28;;;-8.31;74.84
59168;BME280;44948;55.046;73.266;2023-02-26T16:09:37;101841.97;;;-8.28;75.32
59168;BME280;44948;55.046;73.266;2023-02-26T16:12:42;101842.84;;;-8.28;75.37
59168;BME280;44948;55.046;73.266;2023-02-26T16:15:51;101848.88;;;-8.24;75.11
59168;BME280;44948;55.046;73.266;2023-02-26T16:18:58;101844.56;;;-8.27;75.45
59168;BME280;44948;55.046;73.266;2023-02-26T16:25:38;101832.66;;;-8.28;75.12
59168;BME280;44948;55.046;73.266;2023-02-26T16:28:47;101851.06;;;-8.08;74.87
59168;BME280;44948;55.046;73.266;2023-02-26T16:31:57;101853.06;;;-7.99;74.96
59168;BME280;44948;55.046;73.266;2023-02-26T16:35:15;101852.06;;;-8.04;74.36
59168;BME280;44948;55.046;73.266;2023-02-26T16:38:30;101850.72;;;-8.20;74.84
59168;BME280;44948;55.046;73.266;2023-02-26T16:41:38;101859.69;;;-8.04;74.55
59168;BME280;44948;55.046;73.266;2023-02-26T16:45:01;101856.38;;;-8.02;74.29
59168;BME280;44948;55.046;73.266;2023-02-26T16:48:47;101859.34;;;-7.88;74.26
59168;BME280;44948;55.046;73.266;2023-02-26T16:51:53;101862.75;;;-7.87;74.38
59168;BME280;44948;55.046;73.266;2023-02-26T16:55:09;101847.22;;;-7.95;74.42
59168;BME280;44948;55.046;73.266;2023-02-26T16:58:29;101857.56;;;-7.89;74.57
59168;BME280;44948;55.046;73.266;2023-02-26T17:01:37;101860.28;;;-7.84;74.17
59168;BME280;44948;55.046;73.266;2023-02-26T17:04:41;101861.06;;;-7.87;74.23
59168;BME280;44948;55.046;73.266;2023-02-26T17:08:06;101845.41;;;-7.99;74.15
59168;BME280;44948;55.046;73.266;2023-02-26T17:11:24;101860.28;;;-7.84;74.18
59168;BME280;44948;55.046;73.266;2023-02-26T17:14:30;101873.06;;;-7.83;74.44
59168;BME280;44948;55.046;73.266;2023-02-26T17:17:34;101867.47;;;-8.00;74.55
59168;BME280;44948;55.046;73.266;2023-02-26T17:20:36;101866.81;;;-7.92;74.68
59168;BME280;44948;55.046;73.266;2023-02-26T17:23:39;101877.00;;;-7.92;74.70
59168;BME280;44948;55.046;73.266;2023-02-26T17:26:42;101871.03;;;-7.93;74.68
59168;BME280;44948;55.046;73.266;2023-02-26T17:29:56;101847.88;;;-8.02;74.76
59168;BME280;44948;55.046;73.266;2023-02-26T17:33:04;101876.78;;;-8.00;74.66
59168;BME280;44948;55.046;73.266;2023-02-26T17:36:13;101864.84;;;-8.03;74.63
59168;BME280;44948;55.046;73.266;2023-02-26T17:39:17;101863.09;;;-8.04;74.66
59168;BME280;44948;55.046;73.266;2023-02-26T17:42:20;101864.50;;;-8.13;74.78
59168;BME280;44948;55.046;73.266;2023-02-26T17:45:26;101861.22;;;-8.09;74.89
59168;BME280;44948;55.046;73.266;2023-02-26T17:48:33;101865.22;;;-8.17;74.41
59168;BME280;44948;55.046;73.266;2023-02-26T17:51:36;101856.69;;;-8.19;74.72
59168;BME280;44948;55.046;73.266;2023-02-26T17:54:38;101866.00;;;-8.20;74.97
59168;BME280;44948;55.046;73.266;2023-02-26T17:57:51;101859.91;;;-8.23;74.85
59168;BME280;44948;55.046;73.266;2023-02-26T18:00:53;101867.47;;;-8.27;74.59
59168;BME280;44948;55.046;73.266;2023-02-26T18:03:56;101852.19;;;-8.27;74.88
59168;BME280;44948;55.046;73.266;2023-02-26T18:06:59;101874.69;;;-8.13;74.86
59168;BME280;44948;55.046;73.266;2023-02-26T18:10:02;101858.38;;;-8.20;74.45
59168;BME280;44948;55.046;73.266;2023-02-26T18:13:15;101868.75;;;-8.12;74.73
59168;BME280;44948;55.046;73.266;2023-02-26T18:16:20;101882.50;;;-8.07;74.87
59168;BME280;44948;55.046;73.266;2023-02-26T18:19:23;101885.19;;;-8.03;74.98
59168;BME280;44948;55.046;73.266;2023-02-26T18:22:25;101894.69;;;-7.97;74.48
59168;BME280;44948;55.046;73.266;2023-02-26T18:25:28;101900.69;;;-7.95;74.92
59168;BME280;44948;55.046;73.266;2023-02-26T18:28:32;101908.50;;;-7.89;75.02
59168;BME280;44948;55.046;73.266;2023-02-26T18:31:45;101885.53;;;-7.90;74.61
59168;BME280;44948;55.046;73.266;2023-02-26T18:34:48;101900.56;;;-8.00;74.75
59168;BME280;44948;55.046;73.266;2023-02-26T18:37:52;101894.59;;;-8.00;74.97
59168;BME280;44948;55.046;73.266;2023-02-26T18:40:55;101890.28;;;-8.03;74.95
59168;BME280;44948;55.046;73.266;2023-02-26T18:43:57;101871.66;;;-8.02;74.49
59168;BME280;44948;55.046;73.266;2023-02-26T18:47:00;101895.84;;;-7.87;74.41
59168;BME280;44948;55.046;73.266;2023-02-26T18:50:04;101898.06;;;-7.98;74.73
59168;BME280;44948;55.046;73.266;2023-02-26T18:53:07;101894.69;;;-7.97;74.73
59168;BME280;44948;55.046;73.266;2023-02-26T18:56:09;101892.50;;;-7.86;74.67
59168;BME280;44948;55.046;73.266;2023-02-26T18:59:22;101894.25;;;-7.84;74.91
59168;BME280;44948;55.046;73.266;2023-02-26T19:02:35;101900.25;;;-7.82;74.92
59168;BME280;44948;55.046;73.266;2023-02-26T19:05:38;101889.41;;;-7.75;74.90
59168;BME280;44948;55.046;73.266;2023-02-26T19:08:40;101897.84;;;-7.77;74.83
59168;BME280;44948;55.046;73.266;2023-02-26T19:11:42;101899.84;;;-7.67;74.92
59168;BME280;44948;55.046;73.266;2023-02-26T19:14:46;101908.44;;;-7.63;74.84